createdAt,value
2018-01-03T00:04:05.083Z,88.7
2018-01-03T00:14:18.645Z,89.0
2018-01-03T00:24:31.854Z,89.0
2018-01-03T00:34:45.317Z,89.3
2018-01-03T00:45:30.714Z,89.6
2018-01-03T00:56:15.368Z,89.7
2018-01-03T01:06:28.931Z,89.6
2018-01-03T01:16:42.965Z,89.7
2018-01-03T01:26:54.223Z,89.7
2018-01-03T01:37:07.512Z,89.9
2018-01-03T01:47:20.736Z,90.0
2018-01-03T01:57:34.252Z,90.0
2018-01-03T02:07:48.418Z,90.1
2018-01-03T02:18:33.774Z,90.2
2018-01-03T02:28:47.205Z,90.3
2018-01-03T02:39:00.679Z,90.3
2018-01-03T02:49:14.938Z,90.3
2018-01-03T02:59:29.004Z,90.3
2018-01-03T03:10:14.223Z,90.4
2018-01-03T03:20:28.418Z,90.5
2018-01-03T03:31:20.450Z,90.6
2018-01-03T03:42:04.866Z,90.7
2018-01-03T03:52:18.991Z,90.9
2018-01-03T04:02:32.211Z,91.0
2018-01-03T04:12:46.580Z,91.2
2018-01-03T04:22:58.009Z,91.1
2018-01-03T04:33:23.850Z,91.0
2018-01-03T04:43:37.327Z,90.9
2018-01-03T04:54:02.968Z,90.7
2018-01-03T05:04:17.142Z,90.5
2018-01-03T05:14:37.302Z,90.3
2018-01-03T05:24:51.445Z,90.1
2018-01-03T05:35:05.232Z,90.0
2018-01-03T05:45:20.378Z,89.8
2018-01-03T05:55:38.591Z,89.5
2018-01-03T06:06:24.014Z,89.2
2018-01-03T06:17:09.773Z,89.1
2018-01-03T06:27:34.464Z,89.0
2018-01-03T06:37:48.789Z,88.9
2018-01-03T06:48:13.728Z,88.6
2018-01-03T06:58:27.092Z,88.1
2018-01-03T07:09:12.385Z,87.6
2018-01-03T07:19:37.369Z,87.4
2018-01-03T07:30:28.176Z,87.3
2018-01-03T07:40:46.914Z,86.2
2018-01-03T07:51:01.773Z,86.0
2018-01-03T08:04:45.162Z,85.7
2018-01-03T08:15:06.072Z,85.1
2018-01-03T08:26:29.381Z,85.3
2018-01-03T08:36:40.942Z,85.2
2018-01-03T08:46:57.719Z,85.3
2018-01-03T08:57:42.652Z,85.2
2018-01-03T09:07:56.204Z,85.2
2018-01-03T09:18:10.873Z,85.4
2018-01-03T09:28:24.724Z,85.6
2018-01-03T09:38:38.756Z,86.1
2018-01-03T09:48:53.318Z,86.1
2018-01-03T09:59:42.574Z,85.6
2018-01-03T10:10:31.311Z,85.6
2018-01-03T10:21:16.382Z,86.0
2018-01-03T10:32:04.068Z,85.5
2018-01-03T10:42:17.844Z,85.7
2018-01-03T10:53:05.128Z,85.6
2018-01-03T11:04:25.690Z,85.5
2018-01-03T11:15:12.951Z,85.5
2018-01-03T11:25:24.850Z,86.1
2018-01-03T11:36:04.565Z,86.1
2018-01-03T11:47:14.075Z,86.7
2018-01-03T11:58:03.217Z,87.0
2018-01-03T12:09:59.841Z,87.3
2018-01-03T12:22:27.497Z,87.2
2018-01-03T12:33:44.415Z,87.2
2018-01-03T12:44:51.192Z,87.5
2018-01-03T12:56:35.375Z,87.5
2018-01-03T13:07:22.464Z,87.4
2018-01-03T13:19:17.161Z,87.7
2018-01-03T13:41:56.998Z,87.8
2018-01-03T13:52:30.283Z,88.0
2018-01-03T14:13:06.135Z,88.1
2018-01-03T14:24:11.160Z,88.3
2018-01-03T14:35:13.903Z,88.0
2018-01-03T14:45:35.459Z,87.8
2018-01-03T14:56:35.422Z,87.7
2018-01-03T15:07:42.048Z,87.6
2018-01-03T15:18:38.558Z,87.7
2018-01-03T15:30:07.232Z,87.7
2018-01-03T15:40:21.103Z,87.7
2018-01-03T15:50:34.623Z,87.8
2018-01-03T16:01:25.968Z,87.9
2018-01-03T16:12:10.909Z,88.0
2018-01-03T16:22:25.155Z,88.2
2018-01-03T16:32:39.374Z,88.1
2018-01-03T16:43:24.793Z,88.4
2018-01-03T16:54:09.756Z,88.2
2018-01-03T17:04:24.345Z,88.1
2018-01-03T17:15:09.952Z,88.0
2018-01-03T17:25:55.540Z,87.9
2018-01-03T17:36:41.086Z,87.8
2018-01-03T17:46:54.273Z,88.0
2018-01-03T17:57:07.686Z,88.1
2018-01-03T18:07:22.003Z,88.4
2018-01-03T18:17:35.921Z,88.2
2018-01-03T18:27:49.471Z,88.2
2018-01-03T18:38:03.683Z,88.2
2018-01-03T18:48:49.156Z,88.2
2018-01-03T18:59:03.298Z,88.0
2018-01-03T19:09:48.017Z,87.9
2018-01-03T19:21:54.446Z,87.8
2018-01-03T19:33:09.106Z,87.5
2018-01-03T19:44:30.919Z,87.6
2018-01-03T19:56:05.200Z,87.9
2018-01-03T20:07:43.731Z,87.8
2018-01-03T20:29:50.600Z,87.4
2018-01-03T20:40:09.558Z,87.4
2018-01-03T20:51:12.053Z,87.5
2018-01-03T21:02:22.571Z,87.6
2018-01-03T21:13:27.941Z,87.4
2018-01-03T21:24:17.295Z,87.4
2018-01-03T21:34:41.139Z,87.2
2018-01-03T21:45:40.779Z,87.4
2018-01-03T21:56:36.195Z,87.4
2018-01-03T22:07:21.247Z,87.7
2018-01-03T22:18:08.949Z,87.8
2018-01-03T22:28:22.592Z,87.8
2018-01-03T22:39:07.867Z,87.6
2018-01-03T22:49:52.605Z,87.9
2018-01-03T23:00:44.464Z,88.2
2018-01-03T23:10:58.580Z,88.0
2018-01-03T23:21:51.898Z,88.2
2018-01-03T23:32:05.467Z,88.3
2018-01-03T23:42:19.650Z,88.4
